createdAt,value
2023-02-26T00:00:05.035Z,-1.800000
2023-02-26T00:01:01.270Z,-1.800000
2023-02-26T00:02:01.369Z,-1.700000
2023-02-26T00:03:01.305Z,-1.700000
2023-02-26T00:04:01.313Z,-1.700000
2023-02-26T00:05:05.647Z,-1.700000
2023-02-26T00:06:01.402Z,-1.700000
2023-02-26T00:07:01.310Z,-1.700000
2023-02-26T00:08:01.345Z,-1.700000
2023-02-26T00:09:01.318Z,-1.500000
2023-02-26T00:10:05.148Z,-1.500000
2023-02-26T00:11:01.328Z,-1.500000
2023-02-26T00:12:01.384Z,-1.400000
2023-02-26T00:13:01.411Z,-1.400000
2023-02-26T00:14:01.384Z,-1.400000
2023-02-26T00:15:05.918Z,-1.400000
2023-02-26T00:16:01.444Z,-1.400000
2023-02-26T00:17:01.377Z,-1.400000
2023-02-26T00:18:01.422Z,-1.400000
2023-02-26T00:19:01.362Z,-1.500000
2023-02-26T00:20:06.036Z,-1.500000
2023-02-26T00:21:01.409Z,-1.400000
2023-02-26T00:22:01.493Z,-1.400000
2023-02-26T00:23:01.388Z,-1.400000
2023-02-26T00:24:01.473Z,-1.500000
2023-02-26T00:25:05.909Z,-1.500000
2023-02-26T00:26:01.521Z,-1.500000
2023-02-26T00:27:01.480Z,-1.600000
2023-02-26T00:28:01.519Z,-1.600000
2023-02-26T00:29:01.462Z,-1.600000
2023-02-26T00:30:06.328Z,-1.600000
2023-02-26T00:31:01.530Z,-1.600000
2023-02-26T00:32:01.652Z,-1.600000
2023-02-26T00:33:01.475Z,-1.600000
2023-02-26T00:34:01.535Z,-1.700000
2023-02-26T00:35:04.990Z,-1.700000
2023-02-26T00:36:01.621Z,-1.700000
2023-02-26T00:37:01.477Z,-1.700000
2023-02-26T00:38:01.582Z,-1.700000
2023-02-26T00:39:01.537Z,-1.700000
2023-02-26T00:40:06.180Z,-1.600000
2023-02-26T00:41:01.528Z,-1.600000
2023-02-26T00:42:01.648Z,-1.600000
2023-02-26T00:43:01.500Z,-1.600000
2023-02-26T00:44:01.642Z,-1.600000
2023-02-26T00:45:05.973Z,-1.600000
2023-02-26T00:46:01.771Z,-1.600000
2023-02-26T00:47:01.545Z,-1.600000
2023-02-26T00:48:00.694Z,-1.600000
2023-02-26T00:49:00.582Z,-1.600000
2023-02-26T00:50:05.839Z,-1.600000
2023-02-26T00:51:00.632Z,-1.600000
2023-02-26T00:52:00.671Z,-1.600000
2023-02-26T00:53:00.617Z,-1.600000
2023-02-26T00:54:00.725Z,-1.600000
2023-02-26T00:55:05.162Z,-1.700000
2023-02-26T00:56:00.677Z,-1.700000
2023-02-26T00:57:00.656Z,-1.700000
2023-02-26T00:58:00.745Z,-1.700000
2023-02-26T00:59:00.630Z,-1.700000
2023-02-26T01:00:05.414Z,-1.700000
2023-02-26T01:01:01.691Z,-1.700000
2023-02-26T01:02:01.773Z,-1.700000
2023-02-26T01:03:01.716Z,-1.800000
2023-02-26T01:04:01.808Z,-1.800000
2023-02-26T01:05:06.084Z,-1.800000
2023-02-26T01:06:01.781Z,-1.800000
2023-02-26T01:07:01.722Z,-1.800000
2023-02-26T01:08:01.757Z,-1.800000
2023-02-26T01:09:01.722Z,-1.800000
2023-02-26T01:10:06.567Z,-1.800000
2023-02-26T01:11:00.754Z,-1.800000
2023-02-26T01:12:00.882Z,-1.800000
2023-02-26T01:13:00.728Z,-1.800000
2023-02-26T01:14:00.849Z,-1.800000
2023-02-26T01:15:04.458Z,-1.900000
2023-02-26T01:16:00.904Z,-1.900000
2023-02-26T01:17:00.771Z,-1.900000
2023-02-26T01:18:00.943Z,-1.900000
2023-02-26T01:19:00.819Z,-1.900000
2023-02-26T01:20:05.572Z,-2.000000
2023-02-26T01:21:00.814Z,-2.000000
2023-02-26T01:22:00.879Z,-2.000000
2023-02-26T01:23:00.830Z,-2.000000
2023-02-26T01:24:00.977Z,-2.000000
2023-02-26T01:25:04.551Z,-2.000000
2023-02-26T01:26:00.934Z,-2.000000
2023-02-26T01:27:00.850Z,-2.000000
2023-02-26T01:28:00.951Z,-2.000000
2023-02-26T01:29:00.892Z,-2.000000
2023-02-26T01:30:05.689Z,-2.000000
2023-02-26T01:31:01.269Z,-2.000000
2023-02-26T01:32:01.178Z,-2.000000
2023-02-26T01:33:00.908Z,-2.000000
2023-02-26T01:34:01.004Z,-2.000000
2023-02-26T01:35:04.487Z,-2.000000
2023-02-26T01:36:01.033Z,-2.000000
2023-02-26T01:37:00.903Z,-2.000000
2023-02-26T01:38:01.009Z,-2.000000
2023-02-26T01:39:00.921Z,-2.000000
2023-02-26T01:40:05.602Z,-2.000000
2023-02-26T01:41:00.995Z,-2.000000
2023-02-26T01:42:01.052Z,-2.000000
2023-02-26T01:43:00.954Z,-2.000000
2023-02-26T01:44:01.032Z,-2.000000
2023-02-26T01:45:06.180Z,-2.000000
2023-02-26T01:46:01.044Z,-2.000000
2023-02-26T01:47:01.019Z,-2.000000
2023-02-26T01:48:01.291Z,-2.000000
2023-02-26T01:49:01.013Z,-2.000000
2023-02-26T01:50:04.774Z,-2.000000
2023-02-26T01:51:00.995Z,-2.000000
2023-02-26T01:52:01.095Z,-2.000000
2023-02-26T01:53:00.991Z,-2.000000
2023-02-26T01:54:01.165Z,-2.000000
2023-02-26T01:55:05.576Z,-2.000000
2023-02-26T01:56:01.152Z,-2.000000
2023-02-26T01:57:01.053Z,-2.000000
2023-02-26T01:58:01.196Z,-2.000000
2023-02-26T01:59:01.054Z,-2.000000
2023-02-26T02:00:06.027Z,-2.000000
2023-02-26T02:01:01.081Z,-2.000000
2023-02-26T02:02:01.198Z,-2.000000
2023-02-26T02:03:01.224Z,-2.000000
2023-02-26T02:04:01.182Z,-2.000000
2023-02-26T02:05:04.858Z,-2.000000
2023-02-26T02:06:01.240Z,-2.000000
2023-02-26T02:07:01.146Z,-2.000000
2023-02-26T02:08:01.244Z,-2.000000
2023-02-26T02:09:01.150Z,-2.000000
2023-02-26T02:10:05.872Z,-2.000000
2023-02-26T02:11:01.184Z,-2.000000
2023-02-26T02:12:01.303Z,-2.000000
2023-02-26T02:13:01.170Z,-2.100000
2023-02-26T02:14:01.288Z,-2.100000
2023-02-26T02:15:04.918Z,-2.100000
2023-02-26T02:16:01.361Z,-2.100000
2023-02-26T02:17:01.209Z,-2.100000
2023-02-26T02:18:01.352Z,-2.200000
2023-02-26T02:19:01.257Z,-2.200000
2023-02-26T02:20:05.860Z,-2.200000
2023-02-26T02:21:01.264Z,-2.200000
2023-02-26T02:22:03.315Z,-2.200000
2023-02-26T02:23:01.251Z,-2.300000
2023-02-26T02:24:01.356Z,-2.300000
2023-02-26T02:25:04.760Z,-2.300000
2023-02-26T02:26:01.360Z,-2.400000
2023-02-26T02:27:01.341Z,-2.400000
2023-02-26T02:28:01.436Z,-2.400000
2023-02-26T02:29:01.292Z,-2.400000
2023-02-26T02:30:06.023Z,-2.400000
2023-02-26T02:31:01.454Z,-2.500000
2023-02-26T02:32:01.711Z,-2.500000
2023-02-26T02:33:01.347Z,-2.500000
2023-02-26T02:34:01.467Z,-2.600000
2023-02-26T02:35:05.040Z,-2.600000
2023-02-26T02:36:01.506Z,-2.600000
2023-02-26T02:37:01.382Z,-2.600000
2023-02-26T02:38:01.518Z,-2.600000
2023-02-26T02:39:01.427Z,-2.700000
2023-02-26T02:40:06.904Z,-2.700000
2023-02-26T02:41:01.458Z,-2.700000
2023-02-26T02:42:01.550Z,-2.700000
2023-02-26T02:43:01.439Z,-2.700000
2023-02-26T02:44:01.542Z,-2.600000
2023-02-26T02:45:05.077Z,-2.600000
2023-02-26T02:46:01.715Z,-2.600000
2023-02-26T02:47:01.545Z,-2.600000
2023-02-26T02:48:01.563Z,-2.600000
2023-02-26T02:49:01.506Z,-2.600000
2023-02-26T02:50:06.220Z,-2.600000
2023-02-26T02:51:01.517Z,-2.600000
2023-02-26T02:52:01.700Z,-2.600000
2023-02-26T02:53:01.532Z,-2.600000
2023-02-26T02:54:01.666Z,-2.600000
2023-02-26T02:55:03.998Z,-2.600000
2023-02-26T02:56:00.646Z,-2.600000
2023-02-26T02:57:00.543Z,-2.600000
2023-02-26T02:58:00.681Z,-2.600000
2023-02-26T02:59:00.586Z,-2.700000
2023-02-26T03:00:05.299Z,-2.700000
2023-02-26T03:01:01.652Z,-2.700000
2023-02-26T03:02:01.652Z,-2.700000
2023-02-26T03:03:01.667Z,-2.700000
2023-02-26T03:04:01.666Z,-2.600000
2023-02-26T03:05:06.149Z,-2.600000
2023-02-26T03:06:01.696Z,-2.600000
2023-02-26T03:07:01.601Z,-2.600000
2023-02-26T03:08:01.705Z,-2.600000
2023-02-26T03:09:01.673Z,-2.500000
2023-02-26T03:10:06.315Z,-2.500000
2023-02-26T03:11:01.678Z,-2.500000
2023-02-26T03:12:01.772Z,-2.500000
2023-02-26T03:13:01.675Z,-2.500000
2023-02-26T03:14:01.989Z,-2.500000
2023-02-26T03:15:06.293Z,-2.500000
2023-02-26T03:16:01.849Z,-2.500000
2023-02-26T03:17:01.697Z,-2.500000
2023-02-26T03:18:01.801Z,-2.500000
2023-02-26T03:19:01.738Z,-2.500000
2023-02-26T03:20:06.689Z,-2.500000
2023-02-26T03:21:01.757Z,-2.600000
2023-02-26T03:22:01.821Z,-2.600000
2023-02-26T03:23:01.751Z,-2.600000
2023-02-26T03:24:01.845Z,-2.600000
2023-02-26T03:25:06.327Z,-2.600000
2023-02-26T03:26:01.873Z,-2.600000
2023-02-26T03:27:01.813Z,-2.600000
2023-02-26T03:28:01.872Z,-2.600000
2023-02-26T03:29:01.814Z,-2.600000
2023-02-26T03:30:06.584Z,-2.600000
2023-02-26T03:31:01.928Z,-2.600000
2023-02-26T03:32:01.979Z,-2.600000
2023-02-26T03:33:01.825Z,-2.600000
2023-02-26T03:34:01.888Z,-2.700000
2023-02-26T03:35:07.008Z,-2.700000
2023-02-26T03:36:00.953Z,-2.700000
2023-02-26T03:37:00.859Z,-2.700000
2023-02-26T03:38:00.930Z,-2.700000
2023-02-26T03:39:00.943Z,-2.700000
2023-02-26T03:40:04.572Z,-2.700000
2023-02-26T03:41:00.901Z,-2.700000
2023-02-26T03:42:00.975Z,-2.700000
2023-02-26T03:43:00.893Z,-2.700000
2023-02-26T03:44:00.958Z,-2.800000
2023-02-26T03:45:05.371Z,-2.800000
2023-02-26T03:46:01.092Z,-2.800000
2023-02-26T03:47:00.945Z,-2.900000
2023-02-26T03:48:01.007Z,-2.900000
2023-02-26T03:49:00.991Z,-2.900000
2023-02-26T03:50:04.764Z,-2.900000
2023-02-26T03:51:01.009Z,-2.900000
2023-02-26T03:52:01.079Z,-2.900000
2023-02-26T03:53:00.965Z,-2.900000
2023-02-26T03:54:01.075Z,-2.900000
2023-02-26T03:55:05.353Z,-2.900000
2023-02-26T03:56:01.068Z,-2.900000
2023-02-26T03:57:01.035Z,-2.900000
2023-02-26T03:58:01.126Z,-2.900000
2023-02-26T03:59:01.014Z,-2.900000
2023-02-26T04:00:05.716Z,-2.900000
2023-02-26T04:01:00.058Z,-2.900000
2023-02-26T04:02:00.229Z,-2.900000
2023-02-26T04:03:00.133Z,-2.900000
2023-02-26T04:04:00.232Z,-2.900000
2023-02-26T04:05:03.636Z,-2.900000
2023-02-26T04:06:00.167Z,-2.900000
2023-02-26T04:07:00.103Z,-2.800000
2023-02-26T04:08:00.222Z,-2.800000
2023-02-26T04:09:00.133Z,-2.800000
2023-02-26T04:10:04.768Z,-2.800000
2023-02-26T04:11:00.111Z,-2.800000
2023-02-26T04:12:00.233Z,-2.800000
2023-02-26T04:13:00.117Z,-2.800000
2023-02-26T04:14:00.279Z,-2.800000
2023-02-26T04:15:03.734Z,-2.800000
2023-02-26T04:16:00.240Z,-2.800000
2023-02-26T04:17:00.370Z,-2.900000
2023-02-26T04:18:00.252Z,-2.900000
2023-02-26T04:19:00.160Z,-2.900000
2023-02-26T04:20:04.931Z,-2.900000
2023-02-26T04:21:00.217Z,-2.900000
2023-02-26T04:22:00.263Z,-2.900000
2023-02-26T04:23:00.186Z,-2.900000
2023-02-26T04:24:00.331Z,-2.900000
2023-02-26T04:25:04.598Z,-2.900000
2023-02-26T04:26:00.331Z,-2.900000
2023-02-26T04:27:00.220Z,-2.900000
2023-02-26T04:28:00.333Z,-2.900000
2023-02-26T04:29:00.219Z,-2.900000
2023-02-26T04:30:05.682Z,-2.900000
2023-02-26T04:31:00.458Z,-2.900000
2023-02-26T04:32:00.535Z,-2.900000
2023-02-26T04:33:00.288Z,-3.000000
2023-02-26T04:34:00.386Z,-3.000000
2023-02-26T04:35:04.779Z,-2.900000
2023-02-26T04:36:00.390Z,-2.900000
2023-02-26T04:37:00.308Z,-2.900000
2023-02-26T04:38:00.422Z,-2.900000
2023-02-26T04:39:00.355Z,-2.900000
2023-02-26T04:40:05.036Z,-3.000000
2023-02-26T04:41:00.326Z,-3.000000
2023-02-26T04:42:00.437Z,-3.000000
2023-02-26T04:43:00.356Z,-3.000000
2023-02-26T04:44:00.450Z,-3.000000
2023-02-26T04:45:04.747Z,-3.000000
2023-02-26T04:46:00.459Z,-3.000000
2023-02-26T04:47:00.386Z,-3.000000
2023-02-26T04:48:00.465Z,-3.000000
2023-02-26T04:49:00.433Z,-3.000000
2023-02-26T04:50:05.139Z,-3.100000
2023-02-26T04:51:00.411Z,-3.100000
2023-02-26T04:52:00.616Z,-3.100000
2023-02-26T04:53:00.409Z,-3.100000
2023-02-26T04:54:00.573Z,-3.100000
2023-02-26T04:55:04.155Z,-3.100000
2023-02-26T04:56:00.640Z,-3.100000
2023-02-26T04:57:00.479Z,-3.100000
2023-02-26T04:58:00.531Z,-3.200000
2023-02-26T04:59:00.450Z,-3.200000
2023-02-26T05:00:05.304Z,-3.200000
2023-02-26T05:01:00.516Z,-3.200000
2023-02-26T05:02:01.294Z,-3.200000
2023-02-26T05:03:00.512Z,-3.200000
2023-02-26T05:04:00.582Z,-3.200000
2023-02-26T05:05:04.077Z,-3.200000
2023-02-26T05:06:01.118Z,-3.200000
2023-02-26T05:07:00.536Z,-3.200000
2023-02-26T05:08:00.630Z,-3.100000
2023-02-26T05:09:00.567Z,-3.100000
2023-02-26T05:10:05.299Z,-3.000000
2023-02-26T05:11:00.582Z,-3.000000
2023-02-26T05:12:00.638Z,-2.800000
2023-02-26T05:13:00.599Z,-2.800000
2023-02-26T05:14:01.109Z,-2.800000
2023-02-26T05:15:05.033Z,-2.800000
2023-02-26T05:16:00.732Z,-2.800000
2023-02-26T05:17:00.589Z,-2.800000
2023-02-26T05:18:00.717Z,-2.400000
2023-02-26T05:19:00.599Z,-2.400000
2023-02-26T05:20:05.332Z,-2.300000
2023-02-26T05:21:00.663Z,-2.300000
2023-02-26T05:22:00.701Z,-2.200000
2023-02-26T05:23:00.652Z,-2.200000
2023-02-26T05:24:00.748Z,-2.200000
2023-02-26T05:25:05.625Z,-2.200000
2023-02-26T05:26:01.055Z,-2.200000
2023-02-26T05:27:00.676Z,-2.200000
2023-02-26T05:28:00.747Z,-2.000000
2023-02-26T05:29:00.665Z,-2.000000
2023-02-26T05:30:04.654Z,-2.000000
2023-02-26T05:31:00.768Z,-1.900000
2023-02-26T05:32:00.930Z,-1.900000
2023-02-26T05:33:00.730Z,-1.900000
2023-02-26T05:34:01.048Z,-1.900000
2023-02-26T05:35:05.216Z,-1.900000
2023-02-26T05:36:00.823Z,-1.900000
2023-02-26T05:37:00.779Z,-1.900000
2023-02-26T05:38:00.869Z,-1.900000
2023-02-26T05:39:00.762Z,-1.900000
2023-02-26T05:40:05.470Z,-1.900000
2023-02-26T05:41:00.798Z,-2.000000
2023-02-26T05:42:00.883Z,-2.000000
2023-02-26T05:43:00.779Z,-2.100000
2023-02-26T05:44:00.903Z,-2.100000
2023-02-26T05:45:05.388Z,-2.100000
2023-02-26T05:46:00.907Z,-2.100000
2023-02-26T05:47:00.844Z,-2.100000
2023-02-26T05:48:01.038Z,-2.300000
2023-02-26T05:49:00.822Z,-2.300000
2023-02-26T05:50:05.878Z,-2.300000
2023-02-26T05:51:00.839Z,-2.400000
2023-02-26T05:52:00.931Z,-2.400000
2023-02-26T05:53:00.872Z,-2.400000
2023-02-26T05:54:00.962Z,-2.400000
2023-02-26T05:55:05.269Z,-2.400000
2023-02-26T05:56:01.361Z,-2.400000
2023-02-26T05:57:00.915Z,-2.400000
2023-02-26T05:58:00.940Z,-2.400000
2023-02-26T05:59:00.913Z,-2.400000
2023-02-26T06:00:05.778Z,-2.400000
2023-02-26T06:01:01.902Z,-2.400000
2023-02-26T06:02:02.164Z,-2.400000
2023-02-26T06:03:02.033Z,-2.400000
2023-02-26T06:04:02.020Z,-2.400000
2023-02-26T06:05:06.780Z,-2.400000
2023-02-26T06:06:01.039Z,-2.400000
2023-02-26T06:07:00.955Z,-2.400000
2023-02-26T06:08:01.056Z,-2.500000
2023-02-26T06:09:00.966Z,-2.500000
2023-02-26T06:10:04.777Z,-2.500000
2023-02-26T06:11:01.011Z,-2.600000
2023-02-26T06:12:01.109Z,-2.600000
2023-02-26T06:13:01.049Z,-2.600000
2023-02-26T06:14:01.132Z,-2.700000
2023-02-26T06:15:05.487Z,-2.700000
2023-02-26T06:16:01.247Z,-2.700000
2023-02-26T06:17:01.071Z,-2.700000
2023-02-26T06:18:01.162Z,-2.700000
2023-02-26T06:19:01.042Z,-2.900000
2023-02-26T06:20:06.583Z,-2.900000
2023-02-26T06:21:01.146Z,-2.900000
2023-02-26T06:22:01.189Z,-2.900000
2023-02-26T06:23:01.124Z,-2.900000
2023-02-26T06:24:01.208Z,-3.000000
2023-02-26T06:25:06.157Z,-3.000000
2023-02-26T06:26:01.244Z,-3.000000
2023-02-26T06:27:01.135Z,-3.000000
2023-02-26T06:28:01.237Z,-3.000000
2023-02-26T06:29:01.144Z,-3.000000
2023-02-26T06:30:06.073Z,-3.000000
2023-02-26T06:31:01.178Z,-3.000000
2023-02-26T06:32:01.521Z,-3.000000
2023-02-26T06:33:01.208Z,-3.000000
2023-02-26T06:34:01.270Z,-3.000000
2023-02-26T06:35:05.738Z,-3.000000
2023-02-26T06:36:01.303Z,-2.900000
2023-02-26T06:37:01.194Z,-2.900000
2023-02-26T06:38:01.328Z,-2.900000
2023-02-26T06:39:01.203Z,-2.800000
2023-02-26T06:40:06.048Z,-2.800000
2023-02-26T06:41:01.260Z,-2.800000
2023-02-26T06:42:01.320Z,-2.600000
2023-02-26T06:43:00.235Z,-2.600000
2023-02-26T06:44:00.355Z,-2.600000
2023-02-26T06:45:03.872Z,-2.600000
2023-02-26T06:46:00.462Z,-2.600000
2023-02-26T06:47:00.300Z,-2.400000
2023-02-26T06:48:01.112Z,-2.400000
2023-02-26T06:49:00.312Z,-2.300000
2023-02-26T06:50:07.736Z,-2.300000
2023-02-26T06:51:00.318Z,-2.200000
2023-02-26T06:52:07.630Z,-2.200000
2023-02-26T06:53:00.333Z,-2.200000
2023-02-26T06:54:00.943Z,-2.000000
2023-02-26T06:55:04.674Z,-2.000000
2023-02-26T06:56:00.448Z,-1.900000
2023-02-26T06:57:00.398Z,-1.900000
2023-02-26T06:58:01.043Z,-1.900000
2023-02-26T06:59:00.336Z,-1.900000
2023-02-26T07:00:05.637Z,-1.900000
2023-02-26T07:01:00.446Z,-1.900000
2023-02-26T07:02:01.140Z,-1.900000
2023-02-26T07:03:00.412Z,-1.900000
2023-02-26T07:04:00.457Z,-1.900000
2023-02-26T07:05:04.895Z,-1.900000
2023-02-26T07:06:18.685Z,-1.900000
2023-02-26T07:07:00.441Z,-1.900000
2023-02-26T07:08:00.568Z,-1.900000
2023-02-26T07:09:00.474Z,-1.900000
2023-02-26T07:10:06.025Z,-1.900000
2023-02-26T07:11:00.453Z,-1.700000
2023-02-26T07:12:00.532Z,-1.700000
2023-02-26T07:13:00.450Z,-1.700000
2023-02-26T07:14:00.601Z,-1.700000
2023-02-26T07:15:05.753Z,-1.700000
2023-02-26T07:16:00.578Z,-1.700000
2023-02-26T07:17:00.544Z,-1.500000
2023-02-26T07:18:00.621Z,-1.500000
2023-02-26T07:19:00.523Z,-1.500000
2023-02-26T07:20:04.333Z,-1.400000
2023-02-26T07:21:00.530Z,-1.400000
2023-02-26T07:22:07.912Z,-1.300000
2023-02-26T07:23:00.550Z,-1.300000
2023-02-26T07:24:00.667Z,-1.300000
2023-02-26T07:25:04.958Z,-1.300000
2023-02-26T07:26:00.663Z,-1.300000
2023-02-26T07:27:00.738Z,-1.100000
2023-02-26T07:28:01.031Z,-1.100000
2023-02-26T07:29:00.589Z,-1.100000
2023-02-26T07:30:06.643Z,-1.000000
2023-02-26T07:31:00.716Z,-1.000000
2023-02-26T07:32:01.216Z,-0.900000
2023-02-26T07:33:00.625Z,-0.900000
2023-02-26T07:34:00.667Z,-1.000000
2023-02-26T07:35:04.983Z,-1.000000
2023-02-26T07:36:01.062Z,-1.000000
2023-02-26T07:37:00.615Z,-1.000000
2023-02-26T07:38:00.953Z,-1.000000
2023-02-26T07:39:00.669Z,-1.000000
2023-02-26T07:40:06.016Z,-0.800000
2023-02-26T07:41:00.683Z,-0.800000
2023-02-26T07:42:00.750Z,-0.800000
2023-02-26T07:43:00.677Z,-0.700000
2023-02-26T07:44:01.098Z,-0.700000
2023-02-26T07:45:05.138Z,-0.700000
2023-02-26T07:46:00.836Z,-0.700000
2023-02-26T07:47:00.728Z,-0.600000
2023-02-26T07:48:00.827Z,-0.600000
2023-02-26T07:49:00.751Z,-0.600000
2023-02-26T07:50:05.419Z,-0.600000
2023-02-26T07:51:00.775Z,-0.600000
2023-02-26T07:52:00.815Z,-0.600000
2023-02-26T07:53:00.800Z,-0.600000
2023-02-26T07:54:00.836Z,-0.600000
2023-02-26T07:55:05.487Z,-0.700000
2023-02-26T07:56:01.219Z,-0.700000
2023-02-26T07:57:00.799Z,-0.800000
2023-02-26T07:58:00.835Z,-0.800000
2023-02-26T07:59:00.765Z,-0.800000
2023-02-26T08:00:05.637Z,-0.800000
2023-02-26T08:01:01.830Z,-0.800000
2023-02-26T08:02:01.947Z,-0.800000
2023-02-26T08:03:01.854Z,-0.500000
2023-02-26T08:04:01.994Z,-0.500000
2023-02-26T08:05:04.944Z,-0.300000
2023-02-26T08:06:01.965Z,-0.300000
2023-02-26T08:07:01.916Z,0.000000
2023-02-26T08:08:02.007Z,0.000000
2023-02-26T08:09:01.900Z,0.200000
2023-02-26T08:10:05.619Z,0.200000
2023-02-26T08:11:01.910Z,0.200000
2023-02-26T08:12:02.021Z,0.400000
2023-02-26T08:13:01.946Z,0.400000
2023-02-26T08:14:02.023Z,0.400000
2023-02-26T08:15:04.265Z,0.500000
2023-02-26T08:16:02.118Z,0.500000
2023-02-26T08:17:01.925Z,0.600000
2023-02-26T08:18:02.013Z,0.600000
2023-02-26T08:19:01.973Z,0.700000
2023-02-26T08:20:04.718Z,0.700000
2023-02-26T08:21:02.003Z,0.700000
2023-02-26T08:22:02.076Z,1.000000
2023-02-26T08:23:02.003Z,1.000000
2023-02-26T08:24:02.077Z,1.000000
2023-02-26T08:25:04.323Z,1.000000
2023-02-26T08:26:02.123Z,1.000000
2023-02-26T08:27:01.993Z,1.000000
2023-02-26T08:28:02.120Z,1.000000
2023-02-26T08:29:02.057Z,1.000000
2023-02-26T08:30:05.165Z,1.000000
2023-02-26T08:31:02.179Z,1.000000
2023-02-26T08:32:02.339Z,1.000000
2023-02-26T08:33:01.045Z,1.000000
2023-02-26T08:34:01.137Z,1.000000
2023-02-26T08:35:03.402Z,1.000000
2023-02-26T08:36:01.152Z,1.300000
2023-02-26T08:37:01.105Z,1.300000
2023-02-26T08:38:01.230Z,1.500000
2023-02-26T08:39:01.104Z,1.500000
2023-02-26T08:40:03.692Z,1.500000
2023-02-26T08:41:01.137Z,1.500000
2023-02-26T08:42:01.192Z,1.500000
2023-02-26T08:43:01.149Z,1.700000
2023-02-26T08:44:01.361Z,1.700000
2023-02-26T08:45:03.588Z,2.100000
2023-02-26T08:46:01.257Z,2.100000
2023-02-26T08:47:01.181Z,2.100000
2023-02-26T08:48:01.257Z,2.000000
2023-02-26T08:49:01.179Z,2.000000
2023-02-26T08:50:03.809Z,2.000000
2023-02-26T08:51:01.180Z,1.900000
2023-02-26T08:52:01.305Z,1.900000
2023-02-26T08:53:01.231Z,1.700000
2023-02-26T08:54:01.289Z,1.700000
2023-02-26T08:55:03.556Z,1.700000
2023-02-26T08:56:01.380Z,1.600000
2023-02-26T08:57:01.242Z,1.600000
2023-02-26T08:58:00.334Z,1.600000
2023-02-26T08:59:00.224Z,1.500000
2023-02-26T09:00:03.083Z,1.500000
2023-02-26T09:01:00.284Z,1.600000
2023-02-26T09:02:00.456Z,1.600000
2023-02-26T09:03:00.371Z,1.600000
2023-02-26T09:04:01.132Z,1.700000
2023-02-26T09:05:01.454Z,1.700000
2023-02-26T09:06:00.416Z,1.600000
2023-02-26T09:07:00.338Z,1.600000
2023-02-26T09:08:00.411Z,1.500000
2023-02-26T09:09:00.333Z,1.500000
2023-02-26T09:10:01.102Z,1.500000
2023-02-26T09:11:00.331Z,1.500000
2023-02-26T09:12:00.424Z,1.500000
2023-02-26T09:13:00.360Z,1.500000
2023-02-26T09:14:00.460Z,1.300000
2023-02-26T09:15:00.918Z,1.300000
2023-02-26T09:16:00.544Z,1.300000
2023-02-26T09:17:00.403Z,1.300000
2023-02-26T09:18:00.493Z,1.300000
2023-02-26T09:19:00.419Z,1.100000
2023-02-26T09:20:01.225Z,1.100000
2023-02-26T09:21:00.449Z,0.900000
2023-02-26T09:22:00.480Z,0.900000
2023-02-26T09:23:00.434Z,0.900000
2023-02-26T09:24:00.545Z,0.700000
2023-02-26T09:25:01.053Z,0.700000
2023-02-26T09:26:01.154Z,0.900000
2023-02-26T09:27:00.477Z,0.900000
2023-02-26T09:28:00.606Z,1.200000
2023-02-26T09:29:00.485Z,1.200000
2023-02-26T09:30:01.323Z,1.200000
2023-02-26T09:31:00.525Z,1.300000
2023-02-26T09:32:00.743Z,1.300000
2023-02-26T09:33:00.535Z,1.300000
2023-02-26T09:34:01.145Z,1.700000
2023-02-26T09:35:01.056Z,1.700000
2023-02-26T09:36:00.606Z,1.700000
2023-02-26T09:37:00.503Z,1.700000
2023-02-26T09:38:00.622Z,1.900000
2023-02-26T09:39:00.524Z,1.900000
2023-02-26T09:40:01.336Z,1.900000
2023-02-26T09:41:00.561Z,2.100000
2023-02-26T09:42:00.654Z,2.100000
2023-02-26T09:43:00.535Z,2.100000
2023-02-26T09:44:00.669Z,2.300000
2023-02-26T09:45:01.206Z,2.300000
2023-02-26T09:46:00.671Z,2.300000
2023-02-26T09:47:00.592Z,2.300000
2023-02-26T09:48:01.155Z,2.300000
2023-02-26T09:49:00.594Z,2.300000
2023-02-26T09:50:01.490Z,2.300000
2023-02-26T09:51:00.629Z,2.400000
2023-02-26T09:52:00.749Z,2.400000
2023-02-26T09:53:00.611Z,2.400000
2023-02-26T09:54:00.756Z,2.500000
2023-02-26T09:55:01.280Z,2.500000
2023-02-26T09:56:01.108Z,2.500000
2023-02-26T09:57:00.666Z,2.500000
2023-02-26T09:58:00.776Z,2.800000
2023-02-26T09:59:00.681Z,2.800000
2023-02-26T10:00:02.269Z,2.800000
2023-02-26T10:01:00.707Z,2.900000
2023-02-26T10:02:00.996Z,2.900000
2023-02-26T10:03:00.777Z,2.900000
2023-02-26T10:04:01.123Z,2.800000
2023-02-26T10:05:01.277Z,2.800000
2023-02-26T10:06:00.895Z,2.900000
2023-02-26T10:07:00.784Z,2.900000
2023-02-26T10:08:00.906Z,2.900000
2023-02-26T10:09:00.816Z,2.800000
2023-02-26T10:10:01.547Z,2.800000
2023-02-26T10:11:00.824Z,2.900000
2023-02-26T10:12:00.915Z,2.900000
2023-02-26T10:13:00.839Z,2.900000
2023-02-26T10:14:00.937Z,3.000000
2023-02-26T10:15:01.406Z,3.000000
2023-02-26T10:16:00.931Z,3.000000
2023-02-26T10:17:00.963Z,3.000000
2023-02-26T10:18:00.976Z,3.000000
2023-02-26T10:19:00.875Z,3.100000
2023-02-26T10:20:27.897Z,3.100000
2023-02-26T10:21:00.932Z,3.100000
2023-02-26T10:22:00.979Z,3.100000
2023-02-26T10:23:00.945Z,3.100000
2023-02-26T10:24:01.022Z,2.900000
2023-02-26T10:25:01.396Z,2.900000
2023-02-26T10:26:01.140Z,2.900000
2023-02-26T10:27:00.972Z,2.800000
2023-02-26T10:28:01.009Z,2.800000
2023-02-26T10:29:00.983Z,2.700000
2023-02-26T10:30:01.865Z,2.700000
2023-02-26T10:31:01.060Z,2.700000
2023-02-26T10:32:01.190Z,2.500000
2023-02-26T10:33:01.004Z,2.500000
2023-02-26T10:34:01.120Z,2.500000
2023-02-26T10:35:01.537Z,2.500000
2023-02-26T10:36:01.154Z,2.500000
2023-02-26T10:37:01.015Z,2.500000
2023-02-26T10:38:01.156Z,2.500000
2023-02-26T10:39:01.038Z,2.500000
2023-02-26T10:40:01.788Z,2.700000
2023-02-26T10:41:01.079Z,2.700000
2023-02-26T10:42:01.177Z,2.900000
2023-02-26T10:43:01.074Z,2.900000
2023-02-26T10:44:01.189Z,3.300000
2023-02-26T10:45:01.610Z,3.300000
2023-02-26T10:46:01.211Z,3.300000
2023-02-26T10:47:01.141Z,3.500000
2023-02-26T10:48:01.196Z,3.500000
2023-02-26T10:49:01.149Z,3.800000
2023-02-26T10:50:01.924Z,3.800000
2023-02-26T10:51:01.160Z,3.800000
2023-02-26T10:52:01.309Z,4.100000
2023-02-26T10:53:01.208Z,4.100000
2023-02-26T10:54:01.298Z,3.900000
2023-02-26T10:55:01.287Z,3.900000
2023-02-26T10:56:01.126Z,3.900000
2023-02-26T10:57:00.198Z,4.300000
2023-02-26T10:58:00.355Z,4.300000
2023-02-26T10:59:00.251Z,4.300000
2023-02-26T11:00:01.116Z,4.400000
2023-02-26T11:01:00.257Z,4.400000
2023-02-26T11:02:00.398Z,4.800000
2023-02-26T11:03:00.263Z,4.800000
2023-02-26T11:04:01.198Z,4.800000
2023-02-26T11:05:07.480Z,4.600000
2023-02-26T11:06:00.417Z,4.600000
2023-02-26T11:07:00.299Z,4.500000
2023-02-26T11:08:00.471Z,4.500000
2023-02-26T11:09:00.348Z,4.600000
2023-02-26T11:10:01.454Z,4.600000
2023-02-26T11:11:00.352Z,4.600000
2023-02-26T11:12:00.442Z,3.800000
2023-02-26T11:13:00.366Z,3.800000
2023-02-26T11:14:00.495Z,3.800000
2023-02-26T11:15:00.969Z,3.400000
2023-02-26T11:16:00.516Z,3.400000
2023-02-26T11:17:00.377Z,2.900000
2023-02-26T11:18:00.494Z,2.900000
2023-02-26T11:19:00.416Z,2.800000
2023-02-26T11:20:01.335Z,2.800000
2023-02-26T11:21:00.453Z,2.800000
2023-02-26T11:22:00.495Z,2.500000
2023-02-26T11:23:00.464Z,2.500000
2023-02-26T11:24:00.527Z,2.500000
2023-02-26T11:25:00.947Z,2.200000
2023-02-26T11:26:01.239Z,2.200000
2023-02-26T11:27:00.455Z,2.200000
2023-02-26T11:28:00.574Z,2.200000
2023-02-26T11:29:00.461Z,2.200000
2023-02-26T11:30:01.309Z,2.200000